sensor_id;sensor_type;location;lat;lon;timestamp;P1;durP1;ratioP1;P2;durP2;ratioP2
4294;SDS011;2161;53.634;10.100;2023-04-16T00:01:37;557.13;;;114.70;;
4294;SDS011;2161;53.634;10.100;2023-04-16T00:04:03;554.50;;;112.40;;
4294;SDS011;2161;53.634;10.100;2023-04-16T00:06:29;555.03;;;113.20;;
4294;SDS011;2161;53.634;10.100;2023-04-16T00:08:54;557.67;;;113.90;;
4294;SDS011;2161;53.634;10.100;2023-04-16T00:11:20;556.60;;;114.30;;
4294;SDS011;2161;53.634;10.100;2023-04-16T00:13:46;552.80;;;112.90;;
4294;SDS011;2161;53.634;10.100;2023-04-16T00:16:11;557.57;;;114.73;;
4294;SDS011;2161;53.634;10.100;2023-04-16T00:18:37;553.57;;;112.10;;
4294;SDS011;2161;53.634;10.100;2023-04-16T00:21:03;554.88;;;112.75;;
4294;SDS011;2161;53.634;10.100;2023-04-16T00:23:28;549.00;;;111.07;;
4294;SDS011;2161;53.634;10.100;2023-04-16T00:25:54;553.83;;;114.97;;
4294;SDS011;2161;53.634;10.100;2023-04-16T00:28:23;549.72;;;110.78;;
4294;SDS011;2161;53.634;10.100;2023-04-16T00:30:49;554.45;;;113.78;;
4294;SDS011;2161;53.634;10.100;2023-04-16T00:33:15;554.20;;;113.63;;
4294;SDS011;2161;53.634;10.100;2023-04-16T00:35:41;554.90;;;112.97;;
4294;SDS011;2161;53.634;10.100;2023-04-16T00:38:08;552.00;;;112.10;;
4294;SDS011;2161;53.634;10.100;2023-04-16T00:40:34;551.33;;;112.03;;
4294;SDS011;2161;53.634;10.100;2023-04-16T00:42:59;552.70;;;112.83;;
4294;SDS011;2161;53.634;10.100;2023-04-16T00:45:25;547.90;;;111.07;;
4294;SDS011;2161;53.634;10.100;2023-04-16T00:47:51;554.17;;;113.10;;
4294;SDS011;2161;53.634;10.100;2023-04-16T00:50:16;554.00;;;113.67;;
4294;SDS011;2161;53.634;10.100;2023-04-16T00:52:42;553.17;;;114.07;;
4294;SDS011;2161;53.634;10.100;2023-04-16T00:55:08;559.53;;;115.35;;
4294;SDS011;2161;53.634;10.100;2023-04-16T00:57:37;556.90;;;114.03;;
4294;SDS011;2161;53.634;10.100;2023-04-16T01:00:03;554.53;;;112.30;;
4294;SDS011;2161;53.634;10.100;2023-04-16T01:02:29;553.33;;;113.27;;
4294;SDS011;2161;53.634;10.100;2023-04-16T01:04:54;551.00;;;111.53;;
4294;SDS011;2161;53.634;10.100;2023-04-16T01:07:20;552.53;;;113.97;;
4294;SDS011;2161;53.634;10.100;2023-04-16T01:09:46;551.27;;;112.00;;
4294;SDS011;2161;53.634;10.100;2023-04-16T01:12:12;553.83;;;114.30;;
4294;SDS011;2161;53.634;10.100;2023-04-16T01:14:37;557.28;;;115.35;;
4294;SDS011;2161;53.634;10.100;2023-04-16T01:17:03;555.13;;;114.50;;
4294;SDS011;2161;53.634;10.100;2023-04-16T01:19:29;556.00;;;113.32;;
4294;SDS011;2161;53.634;10.100;2023-04-16T01:21:55;556.83;;;114.67;;
4294;SDS011;2161;53.634;10.100;2023-04-16T01:24:22;552.60;;;112.43;;
4294;SDS011;2161;53.634;10.100;2023-04-16T01:26:47;559.37;;;116.20;;
4294;SDS011;2161;53.634;10.100;2023-04-16T01:29:13;551.03;;;112.10;;
4294;SDS011;2161;53.634;10.100;2023-04-16T01:31:38;549.50;;;111.07;;
4294;SDS011;2161;53.634;10.100;2023-04-16T01:34:04;549.10;;;110.63;;
4294;SDS011;2161;53.634;10.100;2023-04-16T01:36:30;552.60;;;112.00;;
4294;SDS011;2161;53.634;10.100;2023-04-16T01:38:55;549.53;;;111.40;;
4294;SDS011;2161;53.634;10.100;2023-04-16T01:41:21;552.10;;;112.93;;
4294;SDS011;2161;53.634;10.100;2023-04-16T01:43:46;550.13;;;111.70;;
4294;SDS011;2161;53.634;10.100;2023-04-16T01:46:27;552.73;;;113.07;;
4294;SDS011;2161;53.634;10.100;2023-04-16T01:48:55;554.65;;;113.07;;
4294;SDS011;2161;53.634;10.100;2023-04-16T01:51:21;553.07;;;113.57;;
4294;SDS011;2161;53.634;10.100;2023-04-16T01:53:48;559.78;;;116.18;;
4294;SDS011;2161;53.634;10.100;2023-04-16T01:56:14;560.37;;;116.57;;
4294;SDS011;2161;53.634;10.100;2023-04-16T01:58:39;556.47;;;114.07;;
4294;SDS011;2161;53.634;10.100;2023-04-16T02:01:06;555.97;;;113.50;;
4294;SDS011;2161;53.634;10.100;2023-04-16T02:03:35;555.78;;;112.85;;
4294;SDS011;2161;53.634;10.100;2023-04-16T02:06:01;556.43;;;114.03;;
4294;SDS011;2161;53.634;10.100;2023-04-16T02:08:27;555.57;;;114.13;;
4294;SDS011;2161;53.634;10.100;2023-04-16T02:10:52;558.83;;;114.77;;
4294;SDS011;2161;53.634;10.100;2023-04-16T02:13:18;556.13;;;114.30;;
4294;SDS011;2161;53.634;10.100;2023-04-16T02:15:44;556.63;;;113.80;;
4294;SDS011;2161;53.634;10.100;2023-04-16T02:18:11;557.88;;;113.93;;
4294;SDS011;2161;53.634;10.100;2023-04-16T02:20:40;560.07;;;115.93;;
4294;SDS011;2161;53.634;10.100;2023-04-16T02:23:07;551.43;;;110.70;;
4294;SDS011;2161;53.634;10.100;2023-04-16T02:25:39;555.63;;;113.67;;
4294;SDS011;2161;53.634;10.100;2023-04-16T02:28:09;556.42;;;115.55;;
4294;SDS011;2161;53.634;10.100;2023-04-16T02:30:36;553.72;;;112.32;;
4294;SDS011;2161;53.634;10.100;2023-04-16T02:33:03;559.15;;;115.55;;
4294;SDS011;2161;53.634;10.100;2023-04-16T02:35:31;556.27;;;114.07;;
4294;SDS011;2161;53.634;10.100;2023-04-16T02:38:00;552.40;;;112.38;;
4294;SDS011;2161;53.634;10.100;2023-04-16T02:40:26;553.38;;;113.57;;
4294;SDS011;2161;53.634;10.100;2023-04-16T02:42:52;554.00;;;112.40;;
4294;SDS011;2161;53.634;10.100;2023-04-16T02:45:18;556.43;;;114.70;;
4294;SDS011;2161;53.634;10.100;2023-04-16T02:47:45;557.33;;;113.30;;
4294;SDS011;2161;53.634;10.100;2023-04-16T02:50:11;561.15;;;117.10;;
4294;SDS011;2161;53.634;10.100;2023-04-16T02:52:36;560.47;;;114.77;;
4294;SDS011;2161;53.634;10.100;2023-04-16T02:55:02;555.83;;;113.80;;
4294;SDS011;2161;53.634;10.100;2023-04-16T02:57:28;556.03;;;113.80;;
4294;SDS011;2161;53.634;10.100;2023-04-16T02:59:53;553.93;;;113.13;;
4294;SDS011;2161;53.634;10.100;2023-04-16T03:02:19;563.97;;;117.47;;
4294;SDS011;2161;53.634;10.100;2023-04-16T03:04:45;559.43;;;116.20;;
4294;SDS011;2161;53.634;10.100;2023-04-16T03:07:10;558.13;;;114.07;;
4294;SDS011;2161;53.634;10.100;2023-04-16T03:09:36;555.20;;;113.93;;
4294;SDS011;2161;53.634;10.100;2023-04-16T03:12:02;553.23;;;111.57;;
4294;SDS011;2161;53.634;10.100;2023-04-16T03:14:28;555.93;;;113.50;;
4294;SDS011;2161;53.634;10.100;2023-04-16T03:16:54;554.20;;;114.30;;
4294;SDS011;2161;53.634;10.100;2023-04-16T03:19:20;557.73;;;114.67;;
4294;SDS011;2161;53.634;10.100;2023-04-16T03:21:46;558.30;;;114.17;;
4294;SDS011;2161;53.634;10.100;2023-04-16T03:24:11;562.13;;;116.77;;
4294;SDS011;2161;53.634;10.100;2023-04-16T03:26:37;558.27;;;114.27;;
4294;SDS011;2161;53.634;10.100;2023-04-16T03:29:03;555.50;;;113.77;;
4294;SDS011;2161;53.634;10.100;2023-04-16T03:31:28;554.27;;;112.47;;
4294;SDS011;2161;53.634;10.100;2023-04-16T03:33:54;566.17;;;119.00;;
4294;SDS011;2161;53.634;10.100;2023-04-16T03:36:20;554.80;;;112.47;;
4294;SDS011;2161;53.634;10.100;2023-04-16T03:38:46;558.23;;;114.20;;
4294;SDS011;2161;53.634;10.100;2023-04-16T03:41:12;558.50;;;114.23;;
4294;SDS011;2161;53.634;10.100;2023-04-16T03:43:38;554.93;;;113.20;;
4294;SDS011;2161;53.634;10.100;2023-04-16T03:46:04;552.20;;;112.70;;
4294;SDS011;2161;53.634;10.100;2023-04-16T03:48:30;553.07;;;111.30;;
4294;SDS011;2161;53.634;10.100;2023-04-16T03:50:55;556.37;;;112.80;;
4294;SDS011;2161;53.634;10.100;2023-04-16T03:53:21;555.90;;;113.87;;
4294;SDS011;2161;53.634;10.100;2023-04-16T03:55:50;559.00;;;115.07;;
4294;SDS011;2161;53.634;10.100;2023-04-16T03:58:16;555.63;;;114.20;;
4294;SDS011;2161;53.634;10.100;2023-04-16T04:00:42;554.63;;;112.13;;
4294;SDS011;2161;53.634;10.100;2023-04-16T04:03:08;553.50;;;112.77;;
4294;SDS011;2161;53.634;10.100;2023-04-16T04:05:35;553.33;;;111.77;;
4294;SDS011;2161;53.634;10.100;2023-04-16T04:08:02;552.60;;;112.47;;
4294;SDS011;2161;53.634;10.100;2023-04-16T04:10:27;556.93;;;114.07;;
4294;SDS011;2161;53.634;10.100;2023-04-16T04:12:55;557.95;;;115.40;;
4294;SDS011;2161;53.634;10.100;2023-04-16T04:15:21;562.57;;;117.60;;
4294;SDS011;2161;53.634;10.100;2023-04-16T04:17:46;555.87;;;112.60;;
4294;SDS011;2161;53.634;10.100;2023-04-16T04:20:12;560.60;;;115.53;;
4294;SDS011;2161;53.634;10.100;2023-04-16T04:22:37;553.47;;;112.77;;
4294;SDS011;2161;53.634;10.100;2023-04-16T04:25:03;554.63;;;113.07;;
4294;SDS011;2161;53.634;10.100;2023-04-16T04:27:28;552.93;;;113.00;;
4294;SDS011;2161;53.634;10.100;2023-04-16T04:29:55;557.03;;;113.40;;
4294;SDS011;2161;53.634;10.100;2023-04-16T04:32:20;559.50;;;116.47;;
4294;SDS011;2161;53.634;10.100;2023-04-16T04:34:46;560.23;;;116.00;;
4294;SDS011;2161;53.634;10.100;2023-04-16T04:37:11;561.90;;;116.30;;
4294;SDS011;2161;53.634;10.100;2023-04-16T04:39:37;553.53;;;112.83;;
4294;SDS011;2161;53.634;10.100;2023-04-16T04:42:02;555.77;;;115.47;;
4294;SDS011;2161;53.634;10.100;2023-04-16T04:44:28;557.83;;;116.50;;
4294;SDS011;2161;53.634;10.100;2023-04-16T04:46:53;553.23;;;112.40;;
4294;SDS011;2161;53.634;10.100;2023-04-16T04:49:19;558.13;;;113.77;;
4294;SDS011;2161;53.634;10.100;2023-04-16T04:51:44;558.10;;;114.57;;
4294;SDS011;2161;53.634;10.100;2023-04-16T04:54:10;550.80;;;111.87;;
4294;SDS011;2161;53.634;10.100;2023-04-16T04:56:36;549.97;;;111.57;;
4294;SDS011;2161;53.634;10.100;2023-04-16T04:59:01;554.73;;;112.30;;
4294;SDS011;2161;53.634;10.100;2023-04-16T05:01:27;557.87;;;114.40;;
4294;SDS011;2161;53.634;10.100;2023-04-16T05:03:52;555.23;;;114.10;;
4294;SDS011;2161;53.634;10.100;2023-04-16T05:06:18;558.30;;;115.07;;
4294;SDS011;2161;53.634;10.100;2023-04-16T05:08:43;554.13;;;112.57;;
4294;SDS011;2161;53.634;10.100;2023-04-16T05:11:09;556.97;;;113.60;;
4294;SDS011;2161;53.634;10.100;2023-04-16T05:13:34;556.20;;;113.77;;
4294;SDS011;2161;53.634;10.100;2023-04-16T05:16:00;556.73;;;115.00;;
4294;SDS011;2161;53.634;10.100;2023-04-16T05:18:25;554.70;;;111.87;;
4294;SDS011;2161;53.634;10.100;2023-04-16T05:20:51;557.30;;;113.60;;
4294;SDS011;2161;53.634;10.100;2023-04-16T05:23:17;556.53;;;113.80;;
4294;SDS011;2161;53.634;10.100;2023-04-16T05:25:42;553.33;;;112.47;;
4294;SDS011;2161;53.634;10.100;2023-04-16T05:28:08;559.40;;;114.33;;
4294;SDS011;2161;53.634;10.100;2023-04-16T05:30:34;560.63;;;116.53;;
4294;SDS011;2161;53.634;10.100;2023-04-16T05:32:59;557.63;;;113.87;;
4294;SDS011;2161;53.634;10.100;2023-04-16T05:35:25;556.87;;;113.57;;
4294;SDS011;2161;53.634;10.100;2023-04-16T05:37:51;558.57;;;114.57;;
4294;SDS011;2161;53.634;10.100;2023-04-16T05:40:17;558.70;;;114.13;;
4294;SDS011;2161;53.634;10.100;2023-04-16T05:42:42;556.60;;;113.60;;
4294;SDS011;2161;53.634;10.100;2023-04-16T05:45:08;561.10;;;116.23;;
4294;SDS011;2161;53.634;10.100;2023-04-16T05:47:34;556.63;;;113.40;;
4294;SDS011;2161;53.634;10.100;2023-04-16T05:50:00;560.43;;;115.60;;
4294;SDS011;2161;53.634;10.100;2023-04-16T05:52:25;560.87;;;116.17;;
4294;SDS011;2161;53.634;10.100;2023-04-16T05:54:51;559.70;;;114.90;;
4294;SDS011;2161;53.634;10.100;2023-04-16T05:57:16;560.57;;;114.57;;
4294;SDS011;2161;53.634;10.100;2023-04-16T05:59:42;554.13;;;113.23;;
4294;SDS011;2161;53.634;10.100;2023-04-16T06:02:07;559.73;;;114.63;;
4294;SDS011;2161;53.634;10.100;2023-04-16T06:04:33;558.07;;;113.27;;
4294;SDS011;2161;53.634;10.100;2023-04-16T06:06:59;560.83;;;115.77;;
4294;SDS011;2161;53.634;10.100;2023-04-16T06:09:25;564.53;;;117.20;;
4294;SDS011;2161;53.634;10.100;2023-04-16T06:11:51;558.03;;;114.50;;
4294;SDS011;2161;53.634;10.100;2023-04-16T06:14:16;560.43;;;114.80;;
4294;SDS011;2161;53.634;10.100;2023-04-16T06:16:42;556.13;;;112.40;;
4294;SDS011;2161;53.634;10.100;2023-04-16T06:19:08;557.53;;;115.23;;
4294;SDS011;2161;53.634;10.100;2023-04-16T06:21:33;554.70;;;112.27;;
4294;SDS011;2161;53.634;10.100;2023-04-16T06:23:59;570.57;;;119.70;;
4294;SDS011;2161;53.634;10.100;2023-04-16T06:26:25;557.77;;;114.07;;
4294;SDS011;2161;53.634;10.100;2023-04-16T06:28:50;559.83;;;113.70;;
4294;SDS011;2161;53.634;10.100;2023-04-16T06:31:16;560.23;;;115.27;;
4294;SDS011;2161;53.634;10.100;2023-04-16T06:33:41;562.70;;;116.73;;
4294;SDS011;2161;53.634;10.100;2023-04-16T06:36:07;556.10;;;113.07;;
4294;SDS011;2161;53.634;10.100;2023-04-16T06:38:32;557.73;;;114.20;;
4294;SDS011;2161;53.634;10.100;2023-04-16T06:40:58;557.53;;;114.33;;
4294;SDS011;2161;53.634;10.100;2023-04-16T06:43:24;559.10;;;114.57;;
4294;SDS011;2161;53.634;10.100;2023-04-16T06:45:50;558.57;;;114.27;;
4294;SDS011;2161;53.634;10.100;2023-04-16T06:48:16;561.63;;;114.57;;
4294;SDS011;2161;53.634;10.100;2023-04-16T06:50:41;558.40;;;113.93;;
4294;SDS011;2161;53.634;10.100;2023-04-16T06:53:07;560.57;;;114.70;;
4294;SDS011;2161;53.634;10.100;2023-04-16T06:55:32;558.40;;;113.20;;
4294;SDS011;2161;53.634;10.100;2023-04-16T06:57:58;561.43;;;115.80;;
4294;SDS011;2161;53.634;10.100;2023-04-16T07:00:23;561.50;;;115.47;;
4294;SDS011;2161;53.634;10.100;2023-04-16T07:02:49;562.93;;;115.17;;
4294;SDS011;2161;53.634;10.100;2023-04-16T07:05:14;563.97;;;116.00;;
4294;SDS011;2161;53.634;10.100;2023-04-16T07:07:40;557.77;;;113.17;;
4294;SDS011;2161;53.634;10.100;2023-04-16T07:10:06;558.90;;;115.97;;
4294;SDS011;2161;53.634;10.100;2023-04-16T07:12:32;557.13;;;113.40;;
4294;SDS011;2161;53.634;10.100;2023-04-16T07:14:57;558.93;;;114.03;;
4294;SDS011;2161;53.634;10.100;2023-04-16T07:17:23;560.87;;;114.77;;
4294;SDS011;2161;53.634;10.100;2023-04-16T07:19:49;561.03;;;115.57;;
4294;SDS011;2161;53.634;10.100;2023-04-16T07:22:15;565.87;;;116.77;;
4294;SDS011;2161;53.634;10.100;2023-04-16T07:24:41;554.43;;;112.73;;
4294;SDS011;2161;53.634;10.100;2023-04-16T07:27:06;556.97;;;113.57;;
4294;SDS011;2161;53.634;10.100;2023-04-16T07:29:32;556.60;;;113.17;;
4294;SDS011;2161;53.634;10.100;2023-04-16T07:31:58;558.93;;;115.03;;
4294;SDS011;2161;53.634;10.100;2023-04-16T07:34:23;563.27;;;115.40;;
4294;SDS011;2161;53.634;10.100;2023-04-16T07:36:49;559.17;;;114.87;;
4294;SDS011;2161;53.634;10.100;2023-04-16T07:39:14;567.27;;;118.77;;
4294;SDS011;2161;53.634;10.100;2023-04-16T07:41:40;562.87;;;116.37;;
4294;SDS011;2161;53.634;10.100;2023-04-16T07:44:07;564.20;;;116.73;;
4294;SDS011;2161;53.634;10.100;2023-04-16T07:46:33;561.50;;;114.20;;
4294;SDS011;2161;53.634;10.100;2023-04-16T07:48:58;564.30;;;116.20;;
4294;SDS011;2161;53.634;10.100;2023-04-16T07:51:24;560.77;;;114.33;;
4294;SDS011;2161;53.634;10.100;2023-04-16T07:53:50;563.43;;;114.80;;
4294;SDS011;2161;53.634;10.100;2023-04-16T07:56:15;568.83;;;118.77;;
4294;SDS011;2161;53.634;10.100;2023-04-16T07:58:41;565.73;;;116.70;;
4294;SDS011;2161;53.634;10.100;2023-04-16T08:01:06;563.83;;;116.80;;
4294;SDS011;2161;53.634;10.100;2023-04-16T08:03:32;563.63;;;114.83;;
4294;SDS011;2161;53.634;10.100;2023-04-16T08:05:57;566.23;;;117.00;;
4294;SDS011;2161;53.634;10.100;2023-04-16T08:08:23;568.90;;;117.43;;
4294;SDS011;2161;53.634;10.100;2023-04-16T08:10:48;571.53;;;118.17;;
4294;SDS011;2161;53.634;10.100;2023-04-16T08:13:14;571.13;;;118.87;;
4294;SDS011;2161;53.634;10.100;2023-04-16T08:15:39;567.03;;;115.63;;
4294;SDS011;2161;53.634;10.100;2023-04-16T08:18:05;564.90;;;116.13;;
4294;SDS011;2161;53.634;10.100;2023-04-16T08:20:36;567.93;;;116.70;;
4294;SDS011;2161;53.634;10.100;2023-04-16T08:23:02;562.87;;;115.27;;
4294;SDS011;2161;53.634;10.100;2023-04-16T08:25:28;567.37;;;117.10;;
4294;SDS011;2161;53.634;10.100;2023-04-16T08:27:53;569.23;;;117.20;;
4294;SDS011;2161;53.634;10.100;2023-04-16T08:30:19;574.73;;;120.30;;
4294;SDS011;2161;53.634;10.100;2023-04-16T08:32:45;564.40;;;116.93;;
4294;SDS011;2161;53.634;10.100;2023-04-16T08:35:11;570.73;;;117.67;;
4294;SDS011;2161;53.634;10.100;2023-04-16T08:37:36;565.23;;;115.87;;
4294;SDS011;2161;53.634;10.100;2023-04-16T08:40:02;567.17;;;115.77;;
4294;SDS011;2161;53.634;10.100;2023-04-16T08:42:32;569.83;;;117.77;;
4294;SDS011;2161;53.634;10.100;2023-04-16T08:45:10;563.93;;;114.70;;
4294;SDS011;2161;53.634;10.100;2023-04-16T08:47:44;566.57;;;115.63;;
4294;SDS011;2161;53.634;10.100;2023-04-16T08:50:14;570.50;;;119.30;;
4294;SDS011;2161;53.634;10.100;2023-04-16T08:53:02;568.53;;;116.67;;
4294;SDS011;2161;53.634;10.100;2023-04-16T08:55:35;567.67;;;114.43;;
4294;SDS011;2161;53.634;10.100;2023-04-16T08:58:07;570.03;;;116.17;;
4294;SDS011;2161;53.634;10.100;2023-04-16T09:00:36;568.97;;;117.87;;
4294;SDS011;2161;53.634;10.100;2023-04-16T09:03:03;571.33;;;116.77;;
4294;SDS011;2161;53.634;10.100;2023-04-16T09:05:29;566.10;;;115.47;;
4294;SDS011;2161;53.634;10.100;2023-04-16T09:07:55;569.93;;;116.80;;
4294;SDS011;2161;53.634;10.100;2023-04-16T09:10:21;572.57;;;117.50;;
4294;SDS011;2161;53.634;10.100;2023-04-16T09:12:48;574.83;;;117.27;;
4294;SDS011;2161;53.634;10.100;2023-04-16T09:15:13;580.03;;;120.20;;
4294;SDS011;2161;53.634;10.100;2023-04-16T09:17:39;575.37;;;117.70;;
4294;SDS011;2161;53.634;10.100;2023-04-16T09:20:06;572.53;;;116.73;;
4294;SDS011;2161;53.634;10.100;2023-04-16T09:22:36;574.90;;;118.07;;
4294;SDS011;2161;53.634;10.100;2023-04-16T09:25:02;580.83;;;120.47;;
4294;SDS011;2161;53.634;10.100;2023-04-16T09:27:28;577.23;;;118.87;;
4294;SDS011;2161;53.634;10.100;2023-04-16T09:29:55;574.10;;;116.13;;
4294;SDS011;2161;53.634;10.100;2023-04-16T09:32:23;579.93;;;119.63;;
4294;SDS011;2161;53.634;10.100;2023-04-16T09:34:54;582.13;;;120.90;;
4294;SDS011;2161;53.634;10.100;2023-04-16T09:37:24;576.53;;;117.47;;
4294;SDS011;2161;53.634;10.100;2023-04-16T09:39:52;583.93;;;120.67;;
4294;SDS011;2161;53.634;10.100;2023-04-16T09:42:25;580.73;;;119.17;;
4294;SDS011;2161;53.634;10.100;2023-04-16T09:44:52;586.33;;;122.93;;
4294;SDS011;2161;53.634;10.100;2023-04-16T09:47:19;578.73;;;119.97;;
4294;SDS011;2161;53.634;10.100;2023-04-16T09:49:45;580.93;;;121.60;;
4294;SDS011;2161;53.634;10.100;2023-04-16T09:52:14;589.50;;;123.90;;
4294;SDS011;2161;53.634;10.100;2023-04-16T09:54:45;578.03;;;117.90;;
4294;SDS011;2161;53.634;10.100;2023-04-16T09:57:17;583.93;;;121.37;;
4294;SDS011;2161;53.634;10.100;2023-04-16T09:59:53;577.20;;;119.10;;
4294;SDS011;2161;53.634;10.100;2023-04-16T10:02:29;574.63;;;116.20;;
4294;SDS011;2161;53.634;10.100;2023-04-16T10:04:55;580.43;;;119.67;;
4294;SDS011;2161;53.634;10.100;2023-04-16T10:07:21;575.13;;;117.37;;
4294;SDS011;2161;53.634;10.100;2023-04-16T10:09:51;576.27;;;119.23;;
4294;SDS011;2161;53.634;10.100;2023-04-16T10:12:17;582.30;;;120.73;;
4294;SDS011;2161;53.634;10.100;2023-04-16T10:14:44;581.40;;;122.60;;
4294;SDS011;2161;53.634;10.100;2023-04-16T10:17:10;582.03;;;120.97;;
4294;SDS011;2161;53.634;10.100;2023-04-16T10:19:36;578.27;;;118.13;;
4294;SDS011;2161;53.634;10.100;2023-04-16T10:22:02;578.27;;;119.80;;
4294;SDS011;2161;53.634;10.100;2023-04-16T10:24:28;578.97;;;118.70;;
4294;SDS011;2161;53.634;10.100;2023-04-16T10:26:55;573.93;;;117.53;;
4294;SDS011;2161;53.634;10.100;2023-04-16T10:29:21;580.13;;;119.87;;
4294;SDS011;2161;53.634;10.100;2023-04-16T10:31:47;577.43;;;119.57;;
4294;SDS011;2161;53.634;10.100;2023-04-16T10:34:14;581.03;;;119.77;;
4294;SDS011;2161;53.634;10.100;2023-04-16T10:36:40;577.47;;;119.07;;
4294;SDS011;2161;53.634;10.100;2023-04-16T10:39:09;578.73;;;118.23;;
4294;SDS011;2161;53.634;10.100;2023-04-16T10:41:36;574.50;;;117.37;;
4294;SDS011;2161;53.634;10.100;2023-04-16T10:44:06;584.07;;;121.23;;
4294;SDS011;2161;53.634;10.100;2023-04-16T10:46:36;578.43;;;117.77;;
4294;SDS011;2161;53.634;10.100;2023-04-16T10:49:23;581.53;;;120.87;;
4294;SDS011;2161;53.634;10.100;2023-04-16T10:51:57;578.07;;;117.77;;
4294;SDS011;2161;53.634;10.100;2023-04-16T10:54:31;575.63;;;116.67;;
4294;SDS011;2161;53.634;10.100;2023-04-16T10:57:02;578.43;;;120.80;;
4294;SDS011;2161;53.634;10.100;2023-04-16T10:59:29;575.30;;;119.37;;
4294;SDS011;2161;53.634;10.100;2023-04-16T11:01:58;574.40;;;117.60;;
4294;SDS011;2161;53.634;10.100;2023-04-16T11:04:28;575.73;;;118.23;;
4294;SDS011;2161;53.634;10.100;2023-04-16T11:12:24;578.17;;;120.10;;
4294;SDS011;2161;53.634;10.100;2023-04-16T11:14:58;571.10;;;116.00;;
4294;SDS011;2161;53.634;10.100;2023-04-16T11:17:27;576.20;;;119.13;;
4294;SDS011;2161;53.634;10.100;2023-04-16T11:19:56;574.53;;;117.70;;
4294;SDS011;2161;53.634;10.100;2023-04-16T11:22:22;582.47;;;121.80;;
4294;SDS011;2161;53.634;10.100;2023-04-16T11:24:52;576.20;;;118.77;;
4294;SDS011;2161;53.634;10.100;2023-04-16T11:27:22;573.93;;;117.57;;
4294;SDS011;2161;53.634;10.100;2023-04-16T11:29:58;576.23;;;118.30;;
4294;SDS011;2161;53.634;10.100;2023-04-16T11:32:31;569.03;;;115.27;;
4294;SDS011;2161;53.634;10.100;2023-04-16T11:34:58;574.90;;;116.83;;
4294;SDS011;2161;53.634;10.100;2023-04-16T11:37:34;573.07;;;116.70;;
4294;SDS011;2161;53.634;10.100;2023-04-16T11:40:01;573.20;;;117.67;;
4294;SDS011;2161;53.634;10.100;2023-04-16T11:42:30;572.50;;;117.00;;
4294;SDS011;2161;53.634;10.100;2023-04-16T11:44:57;571.73;;;116.23;;
4294;SDS011;2161;53.634;10.100;2023-04-16T11:47:26;569.90;;;115.13;;
4294;SDS011;2161;53.634;10.100;2023-04-16T11:49:53;575.73;;;119.57;;
4294;SDS011;2161;53.634;10.100;2023-04-16T11:52:31;579.63;;;121.23;;
4294;SDS011;2161;53.634;10.100;2023-04-16T11:54:57;575.93;;;118.47;;
4294;SDS011;2161;53.634;10.100;2023-04-16T11:57:28;575.77;;;118.30;;
4294;SDS011;2161;53.634;10.100;2023-04-16T11:59:55;575.13;;;118.33;;
4294;SDS011;2161;53.634;10.100;2023-04-16T12:05:04;574.23;;;118.47;;
4294;SDS011;2161;53.634;10.100;2023-04-16T12:07:31;575.83;;;118.03;;
4294;SDS011;2161;53.634;10.100;2023-04-16T12:10:07;577.03;;;119.67;;
4294;SDS011;2161;53.634;10.100;2023-04-16T12:12:33;572.00;;;116.57;;
4294;SDS011;2161;53.634;10.100;2023-04-16T12:15:00;576.50;;;118.77;;
4294;SDS011;2161;53.634;10.100;2023-04-16T12:17:29;574.83;;;117.67;;
4294;SDS011;2161;53.634;10.100;2023-04-16T12:19:59;580.23;;;120.30;;
4294;SDS011;2161;53.634;10.100;2023-04-16T12:22:31;577.50;;;118.73;;
4294;SDS011;2161;53.634;10.100;2023-04-16T12:25:01;577.53;;;119.07;;
4294;SDS011;2161;53.634;10.100;2023-04-16T12:30:22;575.30;;;119.17;;
4294;SDS011;2161;53.634;10.100;2023-04-16T12:32:50;576.90;;;118.37;;
4294;SDS011;2161;53.634;10.100;2023-04-16T12:35:31;577.43;;;118.77;;
4294;SDS011;2161;53.634;10.100;2023-04-16T12:37:57;573.17;;;116.80;;
4294;SDS011;2161;53.634;10.100;2023-04-16T12:40:24;575.63;;;119.73;;
4294;SDS011;2161;53.634;10.100;2023-04-16T12:42:50;581.53;;;120.00;;
4294;SDS011;2161;53.634;10.100;2023-04-16T12:45:15;586.93;;;123.07;;
4294;SDS011;2161;53.634;10.100;2023-04-16T12:47:41;578.83;;;119.17;;
4294;SDS011;2161;53.634;10.100;2023-04-16T12:50:06;576.43;;;118.37;;
4294;SDS011;2161;53.634;10.100;2023-04-16T12:52:33;579.63;;;118.87;;
4294;SDS011;2161;53.634;10.100;2023-04-16T12:54:58;572.57;;;117.07;;
4294;SDS011;2161;53.634;10.100;2023-04-16T12:57:25;575.93;;;118.77;;
4294;SDS011;2161;53.634;10.100;2023-04-16T12:59:55;573.03;;;116.53;;
4294;SDS011;2161;53.634;10.100;2023-04-16T13:02:21;585.53;;;123.07;;
4294;SDS011;2161;53.634;10.100;2023-04-16T13:04:47;575.97;;;117.10;;
4294;SDS011;2161;53.634;10.100;2023-04-16T13:07:13;581.20;;;120.73;;
4294;SDS011;2161;53.634;10.100;2023-04-16T13:09:39;577.63;;;118.80;;
4294;SDS011;2161;53.634;10.100;2023-04-16T13:12:05;574.73;;;118.13;;
4294;SDS011;2161;53.634;10.100;2023-04-16T13:14:31;578.43;;;120.10;;
4294;SDS011;2161;53.634;10.100;2023-04-16T13:16:56;575.50;;;117.83;;
4294;SDS011;2161;53.634;10.100;2023-04-16T13:19:22;578.20;;;119.40;;
4294;SDS011;2161;53.634;10.100;2023-04-16T13:21:47;579.63;;;120.20;;
4294;SDS011;2161;53.634;10.100;2023-04-16T13:24:13;573.80;;;115.90;;
4294;SDS011;2161;53.634;10.100;2023-04-16T13:26:38;579.13;;;119.53;;
4294;SDS011;2161;53.634;10.100;2023-04-16T13:29:05;575.03;;;116.77;;
4294;SDS011;2161;53.634;10.100;2023-04-16T13:31:31;578.63;;;118.23;;
4294;SDS011;2161;53.634;10.100;2023-04-16T13:33:56;584.07;;;122.57;;
4294;SDS011;2161;53.634;10.100;2023-04-16T13:36:22;578.13;;;120.07;;
4294;SDS011;2161;53.634;10.100;2023-04-16T13:38:47;575.50;;;118.73;;
4294;SDS011;2161;53.634;10.100;2023-04-16T13:41:13;575.73;;;118.63;;
4294;SDS011;2161;53.634;10.100;2023-04-16T13:43:38;573.10;;;117.13;;
4294;SDS011;2161;53.634;10.100;2023-04-16T13:46:04;578.93;;;120.47;;
4294;SDS011;2161;53.634;10.100;2023-04-16T13:48:30;573.37;;;115.50;;
4294;SDS011;2161;53.634;10.100;2023-04-16T13:50:56;578.33;;;121.10;;
4294;SDS011;2161;53.634;10.100;2023-04-16T13:53:22;575.47;;;117.77;;
4294;SDS011;2161;53.634;10.100;2023-04-16T13:55:47;574.57;;;117.97;;
4294;SDS011;2161;53.634;10.100;2023-04-16T13:58:13;573.30;;;118.73;;
4294;SDS011;2161;53.634;10.100;2023-04-16T14:00:39;573.53;;;118.17;;
4294;SDS011;2161;53.634;10.100;2023-04-16T14:03:06;577.03;;;117.87;;
4294;SDS011;2161;53.634;10.100;2023-04-16T14:05:32;578.37;;;119.00;;
4294;SDS011;2161;53.634;10.100;2023-04-16T14:07:57;575.47;;;117.17;;
4294;SDS011;2161;53.634;10.100;2023-04-16T14:10:23;578.53;;;119.10;;
4294;SDS011;2161;53.634;10.100;2023-04-16T14:12:48;581.23;;;120.17;;
4294;SDS011;2161;53.634;10.100;2023-04-16T14:15:14;581.10;;;119.50;;
4294;SDS011;2161;53.634;10.100;2023-04-16T14:17:43;576.53;;;118.10;;